Time;durP1;ratioP1;P1;durP2;ratioP2;P2;SDS_P1;SDS_P2;PMS_P1;PMS_P2;Temp;Humidity;BMP_temperature;BMP_pressure;BME280_temperature;BME280_humidity;BME280_pressure;Samples;Min_cycle;Max_cycle;Signal;HPM_P1;HPM_P2
2021/11/20 00:01:57;;;;;;;;;;;;;;;22.33;26.32;98083.03;4969085;29;912;-79
2021/11/20 00:04:22;;;;;;;;;;;;;;;22.57;26.09;98099.78;4967292;28;954;-79
2021/11/20 00:06:50;;;;;;;;;;;;;;;22.62;26.03;98097.19;4968807;29;1277;-79
2021/11/20 00:09:16;;;;;;;;;;;;;;;22.82;25.89;98094.16;4927639;29;1990;-79
2021/11/20 00:11:42;;;;;;;;;;;;;;;22.47;26.06;98106.56;4944315;29;1231;-79
2021/11/20 00:14:10;;;;;;;;;;;;;;;22.31;26.13;98096.06;4962393;29;985;-79
2021/11/20 00:16:36;;;;;;;;;;;;;;;22.12;26.91;98097.78;4952183;29;911;-79
2021/11/20 00:19:01;;;;;;;;;;;;;;;22.57;26.06;98094.91;4965706;29;914;-79
2021/11/20 00:21:28;;;;;;;;;;;;;;;22.69;25.80;98084.84;4987164;28;1380;-79
2021/11/20 00:23:56;;;;;;;;;;;;;;;22.87;25.79;98087.94;4985100;28;1152;-79
2021/11/20 00:26:23;;;;;;;;;;;;;;;22.70;25.88;98082.81;5004067;28;989;-79
2021/11/20 00:31:28;;;;;;;;;;;;;;;22.58;25.74;98078.69;5027449;28;1358;-79
2021/11/20 00:33:53;;;;;;;;;;;;;;;22.49;26.26;98085.03;5004037;28;1111;-79
2021/11/20 00:36:24;;;;;;;;;;;;;;;22.53;26.38;98079.22;4991459;28;926;-79
2021/11/20 00:38:50;;;;;;;;;;;;;;;22.23;26.43;98084.13;4988518;28;940;-79
2021/11/20 00:41:20;;;;;;;;;;;;;;;22.24;26.70;98087.75;5009728;28;1207;-79
2021/11/20 00:43:45;;;;;;;;;;;;;;;22.34;26.27;98089.50;5007865;28;997;-79
2021/11/20 00:46:11;;;;;;;;;;;;;;;22.41;26.52;98094.16;4991425;28;885;-79
2021/11/20 00:48:37;;;;;;;;;;;;;;;22.75;25.91;98091.56;4948397;29;1950;-80
2021/11/20 00:51:04;;;;;;;;;;;;;;;22.99;25.39;98077.06;4953729;29;873;-79
2021/11/20 00:53:29;;;;;;;;;;;;;;;22.44;26.10;98076.28;4857420;29;970;-79
2021/11/20 00:55:55;;;;;;;;;;;;;;;22.50;26.11;98068.81;4874836;29;929;-79
2021/11/20 00:58:21;;;;;;;;;;;;;;;22.26;26.70;98066.22;4855470;29;920;-79
2021/11/20 01:00:47;;;;;;;;;;;;;;;22.57;26.11;98049.53;4873953;29;816;-79
2021/11/20 01:03:13;;;;;;;;;;;;;;;22.69;25.99;98053.66;4892953;29;1332;-79
2021/11/20 01:05:39;;;;;;;;;;;;;;;22.56;25.70;98049.97;4864464;29;893;-79
2021/11/20 01:08:05;;;;;;;;;;;;;;;22.57;25.90;98048.72;4855362;29;1143;-79
2021/11/20 01:10:32;;;;;;;;;;;;;;;22.29;26.33;98042.66;4856724;29;1915;-79
2021/11/20 01:12:58;;;;;;;;;;;;;;;22.12;26.48;98031.81;4840250;29;1179;-79
2021/11/20 01:15:25;;;;;;;;;;;;;;;22.20;26.49;98033.22;4874998;29;853;-79
2021/11/20 01:17:51;;;;;;;;;;;;;;;22.54;26.10;98019.25;4816404;29;1629;-79
2021/11/20 01:20:18;;;;;;;;;;;;;;;22.63;26.17;98019.34;4820303;29;1253;-79
2021/11/20 01:22:53;;;;;;;;;;;;;;;22.49;26.01;98028.31;4820266;29;1165;-79
2021/11/20 01:25:41;;;;;;;;;;;;;;;22.24;26.41;98029.03;4785021;30;1119;-79
2021/11/20 01:28:29;;;;;;;;;;;;;;;22.10;26.51;98018.06;4781753;30;1128;-80
2021/11/20 01:31:18;;;;;;;;;;;;;;;22.26;26.50;98020.06;4779628;30;1023;-80
2021/11/20 01:33:46;;;;;;;;;;;;;;;22.75;25.63;98026.31;4781888;30;1088;-79
2021/11/20 01:36:13;;;;;;;;;;;;;;;22.72;25.77;98013.03;4803571;30;1253;-79
2021/11/20 01:38:40;;;;;;;;;;;;;;;22.29;26.39;98019.97;4805235;29;1344;-79
2021/11/20 01:41:12;;;;;;;;;;;;;;;22.44;26.21;98019.56;4821383;29;1104;-79
2021/11/20 01:43:50;;;;;;;;;;;;;;;22.34;26.51;98016.59;4817768;29;1578;-79
2021/11/20 01:46:24;;;;;;;;;;;;;;;22.75;25.60;98020.63;4821311;29;1264;-79
2021/11/20 01:49:08;;;;;;;;;;;;;;;22.72;25.61;98027.19;4854781;29;1966;-79
2021/11/20 01:51:35;;;;;;;;;;;;;;;22.40;26.04;98025.34;4864597;29;939;-79
2021/11/20 01:54:15;;;;;;;;;;;;;;;22.29;26.20;98031.31;4885969;29;1383;-79
2021/11/20 01:56:49;;;;;;;;;;;;;;;22.44;26.24;98022.41;4863891;29;1257;-79
2021/11/20 01:59:23;;;;;;;;;;;;;;;22.86;25.43;98029.59;4874290;29;1268;-80
2021/11/20 02:02:31;;;;;;;;;;;;;;;22.61;25.68;98021.06;4893144;29;1002;-79
2021/11/20 02:05:07;;;;;;;;;;;;;;;22.12;26.52;98024.09;4867745;29;1328;-79
2021/11/20 02:07:44;;;;;;;;;;;;;;;22.43;26.03;98017.97;4862895;29;1255;-79
2021/11/20 02:10:14;;;;;;;;;;;;;;;22.34;26.10;98025.09;4854868;29;1876;-79
2021/11/20 02:12:52;;;;;;;;;;;;;;;22.30;26.26;98027.25;4840566;29;1107;-79
2021/11/20 02:15:25;;;;;;;;;;;;;;;22.52;25.98;98026.59;4818658;29;1249;-79
2021/11/20 02:17:51;;;;;;;;;;;;;;;22.89;25.36;98033.59;4820136;29;1580;-79
2021/11/20 02:20:27;;;;;;;;;;;;;;;22.74;25.69;98027.56;4843675;29;2113;-79
2021/11/20 02:22:53;;;;;;;;;;;;;;;22.35;26.27;98028.72;4852930;29;1344;-79
2021/11/20 02:25:21;;;;;;;;;;;;;;;22.31;26.18;98028.81;4852240;29;1089;-79
2021/11/20 02:28:19;;;;;;;;;;;;;;;22.47;26.05;98030.78;4825968;29;1011;-79
2021/11/20 02:30:50;;;;;;;;;;;;;;;22.97;25.26;98028.50;4834626;29;1915;-78
2021/11/20 02:33:17;;;;;;;;;;;;;;;22.69;25.49;98033.78;4818386;29;1212;-79
2021/11/20 02:35:50;;;;;;;;;;;;;;;22.59;25.87;98034.91;4893260;29;1204;-79
2021/11/20 02:38:21;;;;;;;;;;;;;;;22.55;25.67;98029.34;4874835;29;1086;-79
2021/11/20 02:40:47;;;;;;;;;;;;;;;22.45;26.23;98026.81;4899155;29;958;-79
2021/11/20 02:43:13;;;;;;;;;;;;;;;22.37;26.48;98031.91;4910337;29;1109;-80
2021/11/20 02:45:50;;;;;;;;;;;;;;;22.35;26.23;98029.53;4901333;29;1311;-80
2021/11/20 02:48:16;;;;;;;;;;;;;;;22.48;26.22;98034.41;4939649;29;1114;-79
2021/11/20 02:50:48;;;;;;;;;;;;;;;22.47;26.09;98035.66;4920644;29;1911;-79
2021/11/20 02:53:34;;;;;;;;;;;;;;;22.75;25.60;98029.16;4908672;29;1377;-79
2021/11/20 02:56:00;;;;;;;;;;;;;;;22.69;25.48;98036.63;4912683;29;994;-79
2021/11/20 02:58:31;;;;;;;;;;;;;;;22.30;26.37;98043.44;4893054;29;1326;-79
2021/11/20 03:01:01;;;;;;;;;;;;;;;22.41;26.21;98045.97;4896501;29;1436;-78
2021/11/20 03:03:28;;;;;;;;;;;;;;;22.24;26.30;98046.03;4908558;29;1231;-79
2021/11/20 03:05:53;;;;;;;;;;;;;;;22.66;26.07;98045.25;4887447;29;1378;-79
2021/11/20 03:08:20;;;;;;;;;;;;;;;22.75;25.62;98040.50;4868343;29;1548;-79
2021/11/20 03:10:46;;;;;;;;;;;;;;;22.62;25.62;98036.84;4878032;29;1895;-79
2021/11/20 03:13:12;;;;;;;;;;;;;;;22.18;26.69;98042.19;4909929;29;1149;-79
2021/11/20 03:15:38;;;;;;;;;;;;;;;22.20;26.62;98039.69;4929359;29;1295;-79
2021/11/20 03:18:04;;;;;;;;;;;;;;;22.38;26.68;98039.16;4928667;29;1688;-79
2021/11/20 03:20:31;;;;;;;;;;;;;;;22.66;25.80;98037.53;4926371;29;1197;-79
2021/11/20 03:23:22;;;;;;;;;;;;;;;22.73;25.52;98042.97;4966775;29;950;-79
2021/11/20 03:25:48;;;;;;;;;;;;;;;22.18;26.45;98047.84;4948982;29;1435;-79
2021/11/20 03:28:14;;;;;;;;;;;;;;;22.27;26.18;98045.13;4911050;29;1350;-80
2021/11/20 03:30:39;;;;;;;;;;;;;;;22.19;26.91;98035.25;4929520;29;1907;-79
2021/11/20 03:33:05;;;;;;;;;;;;;;;22.68;25.83;98037.06;4908223;29;899;-79
2021/11/20 03:35:30;;;;;;;;;;;;;;;22.74;25.59;98043.75;4909709;29;1240;-79
2021/11/20 03:38:05;;;;;;;;;;;;;;;22.51;26.03;98036.34;4909659;29;1243;-79
2021/11/20 03:40:31;;;;;;;;;;;;;;;22.40;26.10;98038.72;4876075;29;1145;-79
2021/11/20 03:42:56;;;;;;;;;;;;;;;22.26;26.50;98037.09;4872617;29;1068;-79
2021/11/20 03:45:22;;;;;;;;;;;;;;;22.62;25.89;98042.50;4816997;29;1140;-79
2021/11/20 03:47:49;;;;;;;;;;;;;;;22.80;25.87;98047.66;4802419;29;1379;-79
2021/11/20 03:50:15;;;;;;;;;;;;;;;22.54;26.13;98036.25;4792893;29;1888;-79
2021/11/20 03:52:41;;;;;;;;;;;;;;;22.43;26.09;98029.31;4799314;30;938;-79
2021/11/20 03:55:08;;;;;;;;;;;;;;;22.60;25.77;98033.66;4762624;30;1133;-79
2021/11/20 03:57:35;;;;;;;;;;;;;;;22.34;26.52;98027.94;4782815;30;1309;-79
2021/11/20 04:00:00;;;;;;;;;;;;;;;22.57;25.93;98026.03;4780715;30;1166;-79
2021/11/20 04:02:26;;;;;;;;;;;;;;;22.71;26.07;98031.28;4783968;30;1307;-80
2021/11/20 04:04:52;;;;;;;;;;;;;;;22.43;26.24;98018.75;4789963;29;1333;-80
2021/11/20 04:07:17;;;;;;;;;;;;;;;22.47;25.95;98030.78;4819489;29;925;-79
2021/11/20 04:09:45;;;;;;;;;;;;;;;22.29;26.51;98037.00;4817309;29;1915;-79
2021/11/20 04:12:13;;;;;;;;;;;;;;;22.30;26.40;98034.94;4819519;29;1288;-79
2021/11/20 04:14:40;;;;;;;;;;;;;;;22.61;25.98;98035.25;4834569;29;1281;-80
2021/11/20 04:17:05;;;;;;;;;;;;;;;22.75;25.93;98029.16;4850499;29;1145;-79
2021/11/20 04:19:35;;;;;;;;;;;;;;;22.50;26.05;98029.09;4841962;29;1255;-79
2021/11/20 04:22:00;;;;;;;;;;;;;;;22.24;26.55;98029.03;4828343;29;1338;-79
2021/11/20 04:24:28;;;;;;;;;;;;;;;22.05;26.52;98027.13;4850073;29;1322;-79
2021/11/20 04:27:14;;;;;;;;;;;;;;;22.19;26.71;98009.75;4912176;29;1167;-80
2021/11/20 04:30:01;;;;;;;;;;;;;;;22.22;26.74;98019.38;4869740;29;1914;-80
2021/11/20 04:32:28;;;;;;;;;;;;;;;22.53;26.27;98028.19;4845561;29;1239;-79
2021/11/20 04:34:54;;;;;;;;;;;;;;;22.75;25.99;98025.53;4827675;29;1341;-79
2021/11/20 04:37:19;;;;;;;;;;;;;;;22.74;25.72;98024.72;4830355;29;1266;-79
2021/11/20 04:39:46;;;;;;;;;;;;;;;22.41;26.49;98026.13;4812583;29;1306;-80
2021/11/20 04:42:12;;;;;;;;;;;;;;;22.17;26.66;98029.22;4821817;29;1267;-80
2021/11/20 04:44:37;;;;;;;;;;;;;;;22.18;26.84;98022.34;4802040;29;1067;-79
2021/11/20 04:47:03;;;;;;;;;;;;;;;22.48;26.13;98025.91;4787539;30;1278;-79
2021/11/20 04:49:29;;;;;;;;;;;;;;;22.66;26.19;98034.69;4802204;29;1892;-79
2021/11/20 04:51:55;;;;;;;;;;;;;;;22.54;26.14;98035.47;4784446;30;1140;-79
2021/11/20 04:54:21;;;;;;;;;;;;;;;22.20;26.79;98034.00;4776992;30;1236;-80
2021/11/20 04:56:46;;;;;;;;;;;;;;;22.46;26.36;98034.09;4805210;29;1429;-80
2021/11/20 04:59:12;;;;;;;;;;;;;;;21.96;27.46;98024.91;4784621;30;1121;-80
2021/11/20 05:01:37;;;;;;;;;;;;;;;22.62;25.93;98022.66;4803793;29;1089;-80
2021/11/20 05:04:03;;;;;;;;;;;;;;;22.79;26.09;98024.13;4815749;29;1255;-79
2021/11/20 05:06:34;;;;;;;;;;;;;;;22.43;26.44;98023.63;4820497;29;1449;-79
2021/11/20 05:09:00;;;;;;;;;;;;;;;22.45;26.14;98009.81;4817753;29;1903;-79
2021/11/20 05:11:29;;;;;;;;;;;;;;;22.28;26.31;98004.22;4821360;29;1116;-80
2021/11/20 05:13:55;;;;;;;;;;;;;;;22.42;26.53;98005.81;4816997;29;2002;-79
2021/11/20 05:16:21;;;;;;;;;;;;;;;22.33;26.30;98009.34;4840498;29;1121;-79
2021/11/20 05:18:47;;;;;;;;;;;;;;;22.65;26.39;98018.91;4822469;29;1406;-80
2021/11/20 05:21:19;;;;;;;;;;;;;;;22.66;26.23;98026.19;4837608;29;1266;-79
2021/11/20 05:23:47;;;;;;;;;;;;;;;22.83;25.56;98013.47;4820395;29;1345;-80
2021/11/20 05:26:12;;;;;;;;;;;;;;;22.36;26.66;98013.31;4787561;30;1172;-78
2021/11/20 05:28:45;;;;;;;;;;;;;;;22.35;26.51;98012.50;4814884;29;1977;-79
2021/11/20 05:31:11;;;;;;;;;;;;;;;22.28;26.41;98020.44;4767390;30;1215;-79
2021/11/20 05:33:39;;;;;;;;;;;;;;;22.57;26.33;98026.03;4798734;29;1191;-79
2021/11/20 05:36:06;;;;;;;;;;;;;;;22.69;26.09;98030.13;4802606;30;1208;-79
2021/11/20 05:38:32;;;;;;;;;;;;;;;22.42;26.34;98033.38;4798498;30;931;-79
2021/11/20 05:40:58;;;;;;;;;;;;;;;22.25;26.60;98027.78;4813602;29;1235;-79
2021/11/20 05:43:33;;;;;;;;;;;;;;;22.47;26.40;98035.66;4814503;29;1048;-79
2021/11/20 05:46:15;;;;;;;;;;;;;;;22.29;26.75;98048.31;4835990;29;1330;-79
2021/11/20 05:48:40;;;;;;;;;;;;;;;22.74;26.06;98044.59;4832031;29;1112;-79
2021/11/20 05:51:06;;;;;;;;;;;;;;;22.39;26.35;98046.44;4802483;30;1907;-79
2021/11/20 05:53:31;;;;;;;;;;;;;;;22.36;26.46;98053.78;4797702;30;968;-79
2021/11/20 05:55:57;;;;;;;;;;;;;;;22.40;26.30;98052.91;4842203;29;1348;-79
2021/11/20 05:58:31;;;;;;;;;;;;;;;22.69;26.26;98047.97;4834602;29;1229;-79
2021/11/20 06:00:58;;;;;;;;;;;;;;;22.68;25.94;98049.19;4856811;29;1134;-79
2021/11/20 06:03:24;;;;;;;;;;;;;;;22.39;26.26;98045.63;4875513;29;1232;-79
2021/11/20 06:05:52;;;;;;;;;;;;;;;22.38;26.32;98041.19;4874927;29;1313;-79
2021/11/20 06:08:19;;;;;;;;;;;;;;;22.24;26.60;98040.38;4890800;29;1185;-79
2021/11/20 06:10:47;;;;;;;;;;;;;;;22.54;26.66;98029.81;4891381;29;1888;-79
2021/11/20 06:13:16;;;;;;;;;;;;;;;22.76;25.96;98036.41;4869483;29;1288;-79
2021/11/20 06:15:50;;;;;;;;;;;;;;;22.67;26.17;98032.66;4872015;29;1379;-79
2021/11/20 06:18:15;;;;;;;;;;;;;;;22.34;26.36;98030.78;4889847;29;1323;-79
2021/11/20 06:20:41;;;;;;;;;;;;;;;22.34;26.27;98033.59;4892864;29;1347;-79
2021/11/20 06:23:07;;;;;;;;;;;;;;;22.06;26.94;98034.38;4924310;29;1111;-79
2021/11/20 06:25:33;;;;;;;;;;;;;;;22.70;26.11;98035.38;4930205;29;1237;-79
2021/11/20 06:27:59;;;;;;;;;;;;;;;22.68;26.15;98035.03;4896557;29;1326;-79
2021/11/20 06:30:25;;;;;;;;;;;;;;;22.31;26.64;98028.03;4910505;29;1965;-79
2021/11/20 06:32:52;;;;;;;;;;;;;;;22.35;26.50;98038.03;4926390;29;1098;-79
2021/11/20 06:35:36;;;;;;;;;;;;;;;22.35;26.57;98043.69;4918346;29;861;-80
2021/11/20 06:38:24;;;;;;;;;;;;;;;22.61;26.21;98038.09;4906555;29;1232;-79
2021/11/20 06:40:51;;;;;;;;;;;;;;;22.74;26.09;98044.59;4929464;29;1278;-80
2021/11/20 06:43:17;;;;;;;;;;;;;;;22.58;26.05;98036.13;4908712;29;1104;-79
2021/11/20 06:45:44;;;;;;;;;;;;;;;22.38;26.45;98032.69;4911237;29;1139;-79
2021/11/20 06:48:10;;;;;;;;;;;;;;;22.42;26.33;98017.16;4908674;29;1341;-79
2021/11/20 06:50:38;;;;;;;;;;;;;;;22.38;26.76;98029.84;4908276;29;1911;-79
2021/11/20 06:53:22;;;;;;;;;;;;;;;22.65;26.45;98018.91;4914332;29;976;-79
2021/11/20 06:56:15;;;;;;;;;;;;;;;22.85;26.03;98015.88;4950680;29;836;-79
2021/11/20 07:00:26;;;;;;;;;;;;;;;22.35;26.46;98021.00;4944538;29;1396;-79
2021/11/20 07:02:36;;;;;;;;;;;;;;;22.25;26.69;98010.78;4949890;29;983;-79
2021/11/20 07:05:01;;;;;;;;;;;;;;;22.33;26.65;98017.06;4916465;29;1250;-80
2021/11/20 07:07:28;;;;;;;;;;;;;;;21.99;27.29;98006.25;4931656;29;909;-79
2021/11/20 07:09:54;;;;;;;;;;;;;;;22.27;26.88;98005.44;4909518;29;1907;-80
2021/11/20 07:12:19;;;;;;;;;;;;;;;22.31;26.75;98008.97;4896110;29;1222;-80
2021/11/20 07:14:45;;;;;;;;;;;;;;;22.56;26.42;98004.59;4929392;29;1126;-79
2021/11/20 07:17:13;;;;;;;;;;;;;;;22.66;26.50;98002.69;4931020;29;878;-79
2021/11/20 07:19:51;;;;;;;;;;;;;;;22.81;25.96;98009.50;4928348;29;1340;-79
2021/11/20 07:22:35;;;;;;;;;;;;;;;22.40;26.64;98002.66;4929907;29;643;-79
2021/11/20 07:25:10;;;;;;;;;;;;;;;22.46;26.81;98017.06;4912547;29;1406;-79
2021/11/20 07:27:35;;;;;;;;;;;;;;;22.34;26.78;98016.59;4933494;29;1218;-79
2021/11/20 07:30:02;;;;;;;;;;;;;;;22.63;26.50;98015.72;4924862;29;2005;-79
2021/11/20 07:32:42;;;;;;;;;;;;;;;22.74;26.31;98021.06;4929992;29;1291;-79
2021/11/20 07:35:09;;;;;;;;;;;;;;;22.47;26.73;98030.78;4924849;29;1315;-79
2021/11/20 07:37:35;;;;;;;;;;;;;;;22.29;26.86;98031.31;4894430;29;1174;-79
2021/11/20 07:40:01;;;;;;;;;;;;;;;22.29;26.68;98022.81;4908815;29;1139;-79
2021/11/20 07:42:28;;;;;;;;;;;;;;;22.39;27.06;98031.47;4910898;29;1133;-79
2021/11/20 07:45:22;;;;;;;;;;;;;;;22.58;26.89;98041.81;4915528;29;881;-79
2021/11/20 07:48:15;;;;;;;;;;;;;;;22.77;26.55;98038.00;4899673;29;1065;-79
2021/11/20 07:50:44;;;;;;;;;;;;;;;22.75;26.39;98040.50;4915190;29;1993;-80
2021/11/20 07:53:23;;;;;;;;;;;;;;;22.40;26.87;98041.56;4912489;29;1054;-79
2021/11/20 07:55:49;;;;;;;;;;;;;;;22.40;27.08;98052.91;4900370;29;1266;-79
2021/11/20 07:58:15;;;;;;;;;;;;;;;22.31;27.03;98051.50;4874180;29;1139;-79
2021/11/20 08:00:40;;;;;;;;;;;;;;;22.36;27.17;98053.78;4866493;29;1189;-79
2021/11/20 08:03:09;;;;;;;;;;;;;;;22.36;27.21;98048.13;4863417;29;1268;-79
2021/11/20 08:05:55;;;;;;;;;;;;;;;22.32;27.39;98055.91;4881592;29;1186;-79
2021/11/20 08:08:39;;;;;;;;;;;;;;;22.44;27.26;98047.91;4892977;29;950;-79
2021/11/20 08:11:24;;;;;;;;;;;;;;;22.71;26.57;98056.81;4882965;29;1236;-79
2021/11/20 08:13:49;;;;;;;;;;;;;;;22.59;26.69;98054.78;4852165;29;1171;-80
2021/11/20 08:16:37;;;;;;;;;;;;;;;22.31;27.03;98064.88;4858726;29;703;-79
2021/11/20 08:19:10;;;;;;;;;;;;;;;22.18;27.23;98059.19;4871561;29;1250;-79
2021/11/20 08:21:49;;;;;;;;;;;;;;;22.41;27.45;98060.16;4874762;29;1252;-79
2021/11/20 08:24:18;;;;;;;;;;;;;;;22.57;26.91;98052.34;4927511;28;1243;-79
2021/11/20 08:26:44;;;;;;;;;;;;;;;22.68;27.00;98063.38;4991883;28;1101;-79
2021/11/20 08:29:11;;;;;;;;;;;;;;;22.50;26.85;98057.47;5006105;28;1968;-79
2021/11/20 08:31:39;;;;;;;;;;;;;;;22.45;26.96;98055.19;5029765;28;1119;-79
2021/11/20 08:34:42;;;;;;;;;;;;;;;22.36;26.69;98059.44;4989005;28;774;-79
2021/11/20 08:37:34;;;;;;;;;;;;;;;22.60;27.36;98064.84;5010044;28;998;-79
2021/11/20 08:40:13;;;;;;;;;;;;;;;22.66;26.88;98065.88;4989604;28;1302;-79
2021/11/20 08:42:40;;;;;;;;;;;;;;;22.75;27.00;98056.72;5010617;28;1202;-79
2021/11/20 08:45:09;;;;;;;;;;;;;;;22.43;27.02;98057.66;4991646;28;902;-79
2021/11/20 08:47:43;;;;;;;;;;;;;;;22.52;26.94;98061.41;5004637;28;1475;-79
2021/11/20 08:50:10;;;;;;;;;;;;;;;22.53;26.99;98068.69;5001401;28;1879;-78
2021/11/20 08:52:36;;;;;;;;;;;;;;;22.49;27.46;98073.69;4988130;28;1128;-80
2021/11/20 08:55:01;;;;;;;;;;;;;;;22.36;27.40;98067.16;4971610;28;1093;-80
2021/11/20 08:57:27;;;;;;;;;;;;;;;22.49;27.54;98067.22;4972146;28;1066;-80
2021/11/20 09:00:08;;;;;;;;;;;;;;;22.32;27.94;98063.63;4932713;29;1029;-80
2021/11/20 09:03:12;;;;;;;;;;;;;;;22.09;28.14;98061.81;4899291;29;893;-80
2021/11/20 09:05:58;;;;;;;;;;;;;;;22.29;28.00;98058.88;4880709;29;1288;-79
2021/11/20 09:08:28;;;;;;;;;;;;;;;22.03;28.44;98046.63;4867759;29;1149;-80
2021/11/20 09:10:54;;;;;;;;;;;;;;;22.65;27.41;98046.50;4867029;29;1964;-80
2021/11/20 09:13:21;;;;;;;;;;;;;;;22.73;27.17;98051.47;4856944;29;1210;-80
2021/11/20 09:15:50;;;;;;;;;;;;;;;22.39;27.43;98046.44;4844223;29;1164;-79
2021/11/20 09:18:25;;;;;;;;;;;;;;;22.27;27.85;98052.84;4820065;29;1092;-80
2021/11/20 09:20:52;;;;;;;;;;;;;;;22.35;27.80;98045.75;4822949;29;1074;-80
2021/11/20 09:23:37;;;;;;;;;;;;;;;22.44;27.86;98047.91;4837608;29;1013;-80
2021/11/20 09:26:08;;;;;;;;;;;;;;;22.66;27.31;98046.03;4841925;29;1185;-80
2021/11/20 09:28:35;;;;;;;;;;;;;;;22.72;27.13;98041.38;4822480;29;1187;-80
2021/11/20 09:31:02;;;;;;;;;;;;;;;22.27;27.85;98035.84;4836679;29;1888;-79
2021/11/20 09:33:29;;;;;;;;;;;;;;;22.32;27.75;98036.06;4861556;29;1206;-80
2021/11/20 09:35:55;;;;;;;;;;;;;;;22.29;27.78;98031.31;4878075;29;1349;-79
2021/11/20 09:38:33;;;;;;;;;;;;;;;22.51;28.03;98025.03;4819240;29;1289;-80
2021/11/20 09:41:18;;;;;;;;;;;;;;;22.68;27.32;98029.34;4822188;29;1077;-80
2021/11/20 09:43:45;;;;;;;;;;;;;;;22.87;26.93;98031.19;4821714;29;1233;-80
2021/11/20 09:46:14;;;;;;;;;;;;;;;22.59;27.11;98012.22;4911575;29;1139;-80
2021/11/20 09:48:48;;;;;;;;;;;;;;;22.47;27.18;98012.97;4967209;28;1197;-80
2021/11/20 09:51:20;;;;;;;;;;;;;;;22.35;27.30;98018.19;4992277;28;1258;-80
2021/11/20 09:53:45;;;;;;;;;;;;;;;22.27;27.76;98008.28;4949980;29;1405;-79
2021/11/20 09:56:13;;;;;;;;;;;;;;;22.64;27.88;98011.66;4954207;29;787;-80
2021/11/20 09:58:39;;;;;;;;;;;;;;;22.77;27.49;98003.94;4950076;29;915;-80
2021/11/20 10:01:24;;;;;;;;;;;;;;;22.45;27.53;98001.31;4935277;29;864;-79
2021/11/20 10:03:53;;;;;;;;;;;;;;;22.12;27.95;97998.59;4931284;29;1004;-80
2021/11/20 10:06:26;;;;;;;;;;;;;;;22.26;28.00;97992.53;4972528;28;931;-80
2021/11/20 10:09:01;;;;;;;;;;;;;;;22.44;27.75;97992.00;4977333;28;1911;-80
2021/11/20 10:11:45;;;;;;;;;;;;;;;22.77;27.22;97986.94;4991544;28;1117;-80
2021/11/20 10:14:11;;;;;;;;;;;;;;;22.42;27.53;97993.69;4980973;28;1350;-79
2021/11/20 10:16:53;;;;;;;;;;;;;;;22.33;27.72;97992.34;4955200;29;934;-80
2021/11/20 10:19:23;;;;;;;;;;;;;;;22.18;27.65;97990.38;4953261;29;981;-79
2021/11/20 10:21:59;;;;;;;;;;;;;;;22.29;27.55;97990.84;4948861;29;881;-80
2021/11/20 10:24:59;;;;;;;;;;;;;;;22.12;28.20;97990.09;4949604;29;889;-80
2021/11/20 10:27:39;;;;;;;;;;;;;;;22.45;28.10;97992.81;4951659;29;983;-80
2021/11/20 10:30:25;;;;;;;;;;;;;;;22.76;27.39;97990.22;4936349;29;1892;-80
2021/11/20 10:32:51;;;;;;;;;;;;;;;22.60;27.34;97982.63;4932033;29;994;-79
2021/11/20 10:35:20;;;;;;;;;;;;;;;22.32;27.80;97985.06;4932247;29;1026;-80
2021/11/20 10:37:48;;;;;;;;;;;;;;;22.12;28.08;97981.59;4877749;29;981;-80
2021/11/20 10:40:27;;;;;;;;;;;;;;;22.35;28.59;97981.31;4893295;29;949;-79
2021/11/20 10:43:15;;;;;;;;;;;;;;;22.74;27.57;97972.84;4906457;29;981;-80
2021/11/20 10:45:46;;;;;;;;;;;;;;;22.87;27.24;97985.78;4876512;29;979;-79
2021/11/20 10:48:26;;;;;;;;;;;;;;;22.46;27.89;97972.50;4874024;29;916;-80
2021/11/20 10:51:07;;;;;;;;;;;;;;;22.47;27.53;97974.06;4876639;29;1911;-79
2021/11/20 10:53:35;;;;;;;;;;;;;;;22.29;28.02;97980.31;4872921;29;901;-80
2021/11/20 10:56:08;;;;;;;;;;;;;;;22.69;27.66;97982.75;4877045;29;1020;-80
2021/11/20 10:58:50;;;;;;;;;;;;;;;22.75;27.41;97966.75;4874557;29;864;-80
2021/11/20 11:01:25;;;;;;;;;;;;;;;22.54;27.46;97973.09;4877199;29;979;-80
2021/11/20 11:03:56;;;;;;;;;;;;;;;22.38;27.57;97976.78;4857359;29;1056;-80
2021/11/20 11:06:34;;;;;;;;;;;;;;;22.17;27.89;97961.22;4858136;29;860;-80
2021/11/20 11:09:02;;;;;;;;;;;;;;;22.72;27.72;97966.84;4854386;29;1954;-80
2021/11/20 11:11:48;;;;;;;;;;;;;;;22.76;27.46;97971.16;4856752;29;1098;-79
2021/11/20 11:14:23;;;;;;;;;;;;;;;22.57;27.50;97966.50;4872785;29;972;-80
2021/11/20 11:16:49;;;;;;;;;;;;;;;22.31;27.93;97971.34;4875110;29;922;-80
2021/11/20 11:19:33;;;;;;;;;;;;;;;22.44;27.73;97974.22;4872899;29;990;-80
2021/11/20 11:22:01;;;;;;;;;;;;;;;22.37;27.43;97975.19;4882210;29;976;-79
2021/11/20 11:24:30;;;;;;;;;;;;;;;22.25;28.12;97976.78;4900324;29;949;-79
2021/11/20 11:27:13;;;;;;;;;;;;;;;22.26;28.20;97975.53;4913005;29;1125;-80
2021/11/20 11:29:44;;;;;;;;;;;;;;;22.30;28.44;97976.22;4911796;29;1955;-80
2021/11/20 11:32:09;;;;;;;;;;;;;;;22.60;28.02;97971.28;4912945;29;958;-80
2021/11/20 11:34:39;;;;;;;;;;;;;;;22.67;27.60;97970.25;4891688;29;1156;-79
2021/11/20 11:37:05;;;;;;;;;;;;;;;22.42;28.22;97968.19;4877606;29;915;-80
2021/11/20 11:39:49;;;;;;;;;;;;;;;22.18;28.10;97968.50;4891247;29;1098;-79
2021/11/20 11:42:21;;;;;;;;;;;;;;;22.23;28.07;97970.78;4912851;29;1146;-80
2021/11/20 11:44:51;;;;;;;;;;;;;;;22.46;28.23;97966.81;4904897;29;925;-79
2021/11/20 11:47:45;;;;;;;;;;;;;;;22.74;27.71;97953.00;4909555;29;804;-80
2021/11/20 11:50:16;;;;;;;;;;;;;;;22.54;27.76;97956.06;4910140;29;1892;-80
2021/11/20 11:52:52;;;;;;;;;;;;;;;22.29;28.19;97945.50;4911645;29;981;-79
2021/11/20 11:55:25;;;;;;;;;;;;;;;22.32;27.75;97939.69;4949036;29;968;-80
2021/11/20 11:58:02;;;;;;;;;;;;;;;22.23;28.16;97942.44;4930542;29;999;-79
2021/11/20 12:00:30;;;;;;;;;;;;;;;22.59;28.22;97942.13;4892417;29;903;-79
2021/11/20 12:02:56;;;;;;;;;;;;;;;22.72;27.67;97938.47;4872757;29;956;-80
2021/11/20 12:05:24;;;;;;;;;;;;;;;22.68;27.57;97944.25;4880651;29;970;-79
2021/11/20 12:07:49;;;;;;;;;;;;;;;22.36;27.97;97951.72;4892226;29;952;-80
2021/11/20 12:10:17;;;;;;;;;;;;;;;22.32;28.30;97948.19;4892149;29;1892;-79
2021/11/20 12:12:55;;;;;;;;;;;;;;;22.42;28.05;97948.34;4887256;29;1014;-79
2021/11/20 12:15:28;;;;;;;;;;;;;;;22.38;28.30;97947.63;4874425;29;922;-78
2021/11/20 12:17:54;;;;;;;;;;;;;;;22.73;27.95;97952.19;4874542;29;971;-80
2021/11/20 12:20:24;;;;;;;;;;;;;;;22.79;27.84;97956.06;4874522;29;948;-79
2021/11/20 12:22:57;;;;;;;;;;;;;;;22.67;27.82;97959.69;4892555;29;913;-80
2021/11/20 12:25:43;;;;;;;;;;;;;;;22.43;28.13;97952.75;4891030;29;1067;-80
2021/11/20 12:28:10;;;;;;;;;;;;;;;22.21;28.58;97961.91;4893907;29;978;-79
2021/11/20 12:30:38;;;;;;;;;;;;;;;22.22;28.41;97945.69;4892811;29;1892;-79
2021/11/20 12:33:19;;;;;;;;;;;;;;;22.69;27.84;97945.88;4891543;29;995;-79
2021/11/20 12:35:50;;;;;;;;;;;;;;;22.58;28.11;97951.06;4892780;29;853;-79
2021/11/20 12:38:15;;;;;;;;;;;;;;;22.45;28.02;97941.78;4893545;29;839;-80
2021/11/20 12:40:41;;;;;;;;;;;;;;;22.33;28.19;97946.97;4919618;29;899;-79
2021/11/20 12:43:18;;;;;;;;;;;;;;;22.17;28.63;97941.38;4927575;29;971;-79
2021/11/20 12:45:44;;;;;;;;;;;;;;;22.24;28.20;97932.69;4916366;29;1140;-80
2021/11/20 12:48:33;;;;;;;;;;;;;;;22.45;28.68;97936.09;4913841;29;931;-80
2021/11/20 12:51:10;;;;;;;;;;;;;;;22.65;28.22;97933.84;4932084;29;1968;-79
2021/11/20 12:53:37;;;;;;;;;;;;;;;22.22;28.34;97932.31;4940655;29;1282;-79
2021/11/20 12:56:17;;;;;;;;;;;;;;;22.28;28.67;97927.69;4953724;29;909;-79
2021/11/20 12:58:47;;;;;;;;;;;;;;;22.09;28.61;97925.81;4942716;29;1007;-80
2021/11/20 13:01:13;;;;;;;;;;;;;;;22.24;28.34;97932.69;4941859;29;1063;-79
2021/11/20 13:03:39;;;;;;;;;;;;;;;22.58;28.42;97928.38;4949721;29;911;-79
2021/11/20 13:06:07;;;;;;;;;;;;;;;22.70;27.99;97935.31;4980806;28;834;-79
2021/11/20 13:08:34;;;;;;;;;;;;;;;22.61;27.89;97933.16;4996282;28;920;-79
2021/11/20 13:10:59;;;;;;;;;;;;;;;22.54;28.16;97927.72;5031080;28;1887;-79
2021/11/20 13:13:28;;;;;;;;;;;;;;;22.53;27.80;97931.78;5027764;28;1082;-80
2021/11/20 13:16:01;;;;;;;;;;;;;;;22.34;28.12;97930.75;5031129;28;897;-79
2021/11/20 13:18:28;;;;;;;;;;;;;;;22.38;28.53;97930.63;5007405;28;1044;-79
2021/11/20 13:21:04;;;;;;;;;;;;;;;22.47;28.41;97928.72;5010610;28;935;-79
2021/11/20 13:23:31;;;;;;;;;;;;;;;22.64;28.10;97937.94;4986602;28;925;-79
2021/11/20 13:25:59;;;;;;;;;;;;;;;22.50;28.07;97938.38;4990041;28;980;-79